Time;durP1;ratioP1;P1;durP2;ratioP2;P2;SDS_P1;SDS_P2;PMS_P1;PMS_P2;Temp;Humidity;BMP_temperature;BMP_pressure;BME280_temperature;BME280_humidity;BME280_pressure;Samples;Min_cycle;Max_cycle;Signal;HPM_P1;HPM_P2
2023/05/21 00:01:22;;;;;;;18.70;12.83;;;;;;;14.50;100.00;100291.09;5028816;28;20195;-70
2023/05/21 00:03:49;;;;;;;27.13;14.90;;;;;;;14.52;100.00;100283.97;5028020;28;20203;-70
2023/05/21 00:06:16;;;;;;;19.10;13.83;;;;;;;14.53;100.00;100291.06;5031303;28;20194;-71
2023/05/21 00:08:42;;;;;;;20.87;13.80;;;;;;;14.52;100.00;100292.84;5009203;28;20212;-70
2023/05/21 00:11:08;;;;;;;22.40;13.77;;;;;;;14.66;100.00;100275.00;5034548;28;20550;-70
2023/05/21 00:13:35;;;;;;;20.63;13.40;;;;;;;14.66;100.00;100274.13;5028753;28;20206;-71
2023/05/21 00:16:01;;;;;;;18.67;13.17;;;;;;;14.69;100.00;100272.31;5032710;28;20191;-71
2023/05/21 00:18:31;;;;;;;18.33;12.57;;;;;;;14.63;100.00;100276.78;5019263;28;20580;-72
2023/05/21 00:20:58;;;;;;;20.63;13.60;;;;;;;14.66;100.00;100277.66;5033582;28;20207;-70
2023/05/21 00:23:25;;;;;;;19.57;12.87;;;;;;;14.74;100.00;100264.28;5021796;28;20196;-72
2023/05/21 00:25:52;;;;;;;19.33;12.93;;;;;;;14.75;100.00;100263.41;5004062;28;20222;-71
2023/05/21 00:28:18;;;;;;;19.73;13.43;;;;;;;14.72;100.00;100268.75;5020798;28;20596;-72
2023/05/21 00:30:46;;;;;;;21.10;13.93;;;;;;;14.68;100.00;100269.66;5003406;28;20192;-71
2023/05/21 00:33:12;;;;;;;24.10;13.03;;;;;;;14.69;100.00;100266.97;5012414;28;20626;-71
2023/05/21 00:35:39;;;;;;;20.20;12.80;;;;;;;14.84;100.00;100267.81;5018191;28;20637;-71
2023/05/21 00:38:06;;;;;;;18.03;13.60;;;;;;;14.87;100.00;100259.78;5021770;28;20670;-71
2023/05/21 00:40:33;;;;;;;18.47;12.77;;;;;;;14.95;100.00;100255.28;5022328;28;20823;-72
2023/05/21 00:43:00;;;;;;;19.67;13.17;;;;;;;14.92;100.00;100264.19;5021299;28;20196;-72
2023/05/21 00:45:28;;;;;;;20.43;13.30;;;;;;;15.04;100.00;100244.56;5025427;28;20195;-72
2023/05/21 00:47:55;;;;;;;18.97;12.43;;;;;;;15.01;100.00;100250.78;5023563;28;20625;-72
2023/05/21 00:50:22;;;;;;;19.80;12.60;;;;;;;15.09;100.00;100247.19;5026450;28;20192;-71
2023/05/21 00:52:49;;;;;;;17.57;12.67;;;;;;;15.07;100.00;100246.31;5030604;28;20703;-70
2023/05/21 00:55:15;;;;;;;17.10;11.90;;;;;;;15.03;100.00;100246.34;5023803;28;20204;-70
2023/05/21 00:57:42;;;;;;;19.47;12.63;;;;;;;14.99;100.00;100241.91;5034646;28;20213;-71
2023/05/21 01:00:09;;;;;;;17.63;11.80;;;;;;;15.03;100.00;100241.00;5028538;28;20298;-71
2023/05/21 01:02:36;;;;;;;19.40;12.77;;;;;;;15.09;100.00;100240.06;5032920;28;20200;-72
2023/05/21 01:05:06;;;;;;;18.60;11.90;;;;;;;15.04;100.00;100233.88;5035237;28;20348;-72
2023/05/21 01:07:37;;;;;;;15.97;11.67;;;;;;;14.99;100.00;100233.03;5034589;28;20738;-71
2023/05/21 01:10:06;;;;;;;18.47;12.57;;;;;;;14.94;100.00;100235.75;5028013;28;20246;-71
2023/05/21 01:12:34;;;;;;;18.97;12.63;;;;;;;14.95;100.00;100231.28;5033124;28;20223;-70
2023/05/21 01:15:04;;;;;;;19.40;12.47;;;;;;;14.95;100.00;100231.28;5032973;28;20195;-69
2023/05/21 01:17:32;;;;;;;20.20;13.17;;;;;;;14.96;100.00;100225.94;5037697;28;20191;-71
2023/05/21 01:20:00;;;;;;;16.77;12.10;;;;;;;15.03;100.00;100226.78;5021184;28;20219;-71
2023/05/21 01:22:31;;;;;;;16.87;11.83;;;;;;;15.07;99.91;100225.84;5021990;28;20616;-71
2023/05/21 01:24:57;;;;;;;17.93;12.43;;;;;;;15.04;100.00;100221.44;5029277;28;20202;-70
2023/05/21 01:27:24;;;;;;;16.10;11.27;;;;;;;14.91;100.00;100219.75;5018611;28;20299;-72
2023/05/21 01:29:50;;;;;;;17.43;12.57;;;;;;;14.91;100.00;100219.75;5021886;28;20306;-70
2023/05/21 01:32:41;;;;;;;18.17;11.77;;;;;;;14.86;100.00;100215.34;5022539;28;20317;-72
2023/05/21 01:35:11;;;;;;;17.30;12.70;;;;;;;14.80;100.00;100213.59;5019391;28;20192;-71
2023/05/21 01:38:11;;;;;;;21.27;12.73;;;;;;;14.84;100.00;100212.72;5023022;28;20196;-71
2023/05/21 01:40:46;;;;;;;17.97;12.67;;;;;;;14.79;100.00;100206.50;5020865;28;20204;-71
2023/05/21 01:43:14;;;;;;;17.60;12.70;;;;;;;14.72;100.00;100208.31;5011789;28;20198;-72
2023/05/21 01:45:43;;;;;;;19.93;11.83;;;;;;;14.65;100.00;100213.69;5005713;28;20207;-72
2023/05/21 01:48:11;;;;;;;17.70;12.17;;;;;;;14.69;100.00;100202.13;5023746;28;20601;-72
2023/05/21 01:50:39;;;;;;;18.50;11.97;;;;;;;14.81;100.00;100204.72;5022663;28;20195;-71
2023/05/21 01:53:06;;;;;;;17.50;12.30;;;;;;;14.83;100.00;100204.72;5025273;28;20203;-71
2023/05/21 01:55:32;;;;;;;16.33;11.47;;;;;;;14.78;100.00;100202.06;5016410;28;20665;-70
2023/05/21 01:57:59;;;;;;;17.60;11.80;;;;;;;14.79;100.00;100198.50;5019250;28;20195;-70
2023/05/21 02:00:28;;;;;;;19.50;12.27;;;;;;;14.84;100.00;100188.72;5017277;28;20200;-70
2023/05/21 02:02:54;;;;;;;16.80;12.17;;;;;;;14.85;100.00;100186.94;5023207;28;20200;-71
2023/05/21 02:05:21;;;;;;;20.67;12.10;;;;;;;14.90;100.00;100193.09;5026500;28;20253;-72
2023/05/21 02:07:51;;;;;;;17.53;12.17;;;;;;;14.88;100.00;100197.56;5023138;28;20216;-70
2023/05/21 02:10:18;;;;;;;17.97;11.97;;;;;;;14.78;100.00;100187.84;5016938;28;20258;-71
2023/05/21 02:12:44;;;;;;;20.03;12.10;;;;;;;14.86;100.00;100188.69;5018083;28;20254;-71
2023/05/21 02:15:13;;;;;;;17.67;11.93;;;;;;;14.82;100.00;100184.28;5023000;28;20203;-70
2023/05/21 02:17:39;;;;;;;17.10;10.73;;;;;;;14.73;100.00;100186.09;5024539;28;20187;-71
2023/05/21 02:20:12;;;;;;;16.83;11.93;;;;;;;14.69;100.00;100184.34;5015689;28;20335;-71
2023/05/21 02:22:40;;;;;;;16.33;11.23;;;;;;;14.80;100.00;100181.59;5019347;28;20192;-72
2023/05/21 02:25:08;;;;;;;18.13;12.43;;;;;;;14.75;100.00;100186.09;5010860;28;20196;-71
2023/05/21 02:27:36;;;;;;;20.23;11.70;;;;;;;14.76;100.00;100182.53;5017284;28;20578;-71
2023/05/21 02:30:05;;;;;;;16.90;11.93;;;;;;;14.74;100.00;100189.66;5025185;28;20247;-71
2023/05/21 02:32:35;;;;;;;16.90;11.90;;;;;;;14.71;100.00;100190.56;5022050;28;20230;-72
2023/05/21 02:35:03;;;;;;;17.30;11.63;;;;;;;14.68;100.00;100190.56;5021241;28;20196;-71
2023/05/21 02:37:33;;;;;;;16.57;11.43;;;;;;;14.64;100.00;100182.63;5017492;28;20202;-72
2023/05/21 02:40:01;;;;;;;17.97;11.73;;;;;;;14.67;100.00;100190.59;5019907;28;20219;-72
2023/05/21 02:42:27;;;;;;;20.97;12.30;;;;;;;14.69;100.00;100186.13;5018996;28;20200;-71
2023/05/21 02:44:53;;;;;;;17.70;11.70;;;;;;;14.75;100.00;100188.75;5030092;28;20222;-70
2023/05/21 02:47:21;;;;;;;16.90;11.67;;;;;;;14.84;100.00;100178.03;5014311;28;20215;-70
2023/05/21 02:49:48;;;;;;;16.70;11.40;;;;;;;14.86;100.00;100186.03;5022900;28;20610;-70
2023/05/21 02:52:17;;;;;;;17.20;12.43;;;;;;;14.81;100.00;100191.41;5025954;28;20196;-70
2023/05/21 02:54:44;;;;;;;15.80;11.70;;;;;;;14.74;100.00;100195.84;5020318;28;20744;-71
2023/05/21 02:57:11;;;;;;;20.47;12.40;;;;;;;14.69;100.00;100191.47;5026368;28;20195;-71
2023/05/21 02:59:37;;;;;;;17.00;11.73;;;;;;;14.73;100.00;100185.22;5030387;28;20252;-71
2023/05/21 03:02:04;;;;;;;20.67;12.10;;;;;;;14.79;100.00;100201.16;5032040;28;20195;-71
2023/05/21 03:04:31;;;;;;;16.70;11.50;;;;;;;14.91;100.00;100195.75;5029476;28;20196;-71
2023/05/21 03:07:00;;;;;;;17.20;12.20;;;;;;;15.07;98.67;100190.31;5032107;28;20579;-71
2023/05/21 03:09:27;;;;;;;17.13;11.17;;;;;;;15.01;98.91;100192.13;5016301;28;20491;-72
2023/05/21 03:11:53;;;;;;;16.60;11.30;;;;;;;14.91;99.45;100193.09;5027111;28;20203;-70
2023/05/21 03:14:23;;;;;;;17.97;12.27;;;;;;;14.78;100.00;100186.06;5026599;28;20205;-71
2023/05/21 03:16:50;;;;;;;18.80;12.03;;;;;;;14.73;100.00;100187.88;5028777;28;20912;-71
2023/05/21 03:19:16;;;;;;;16.93;11.90;;;;;;;14.72;100.00;100180.78;5010076;28;20222;-72
2023/05/21 03:21:43;;;;;;;16.23;11.23;;;;;;;14.62;100.00;100185.28;5025324;28;20724;-71
2023/05/21 03:24:12;;;;;;;17.40;12.23;;;;;;;14.55;100.00;100180.00;5025135;28;20204;-71
2023/05/21 03:26:38;;;;;;;16.23;10.80;;;;;;;14.49;100.00;100185.38;5025170;28;20195;-71
2023/05/21 03:29:05;;;;;;;16.70;11.40;;;;;;;14.41;100.00;100183.63;4999557;28;20228;-70
2023/05/21 03:31:31;;;;;;;16.57;11.70;;;;;;;14.38;100.00;100185.38;5019872;28;20580;-71
2023/05/21 03:33:57;;;;;;;17.63;11.93;;;;;;;14.41;100.00;100190.72;5015006;28;20210;-71
2023/05/21 03:36:24;;;;;;;14.47;10.50;;;;;;;14.35;100.00;100188.06;5026786;28;20197;-72
2023/05/21 03:38:50;;;;;;;17.83;11.10;;;;;;;14.30;100.00;100182.75;5013190;28;20224;-72
2023/05/21 03:41:17;;;;;;;18.30;12.10;;;;;;;14.25;100.00;100189.91;5024282;28;20210;-71
2023/05/21 03:43:43;;;;;;;17.27;11.47;;;;;;;14.24;100.00;100193.47;5023953;28;20191;-72
2023/05/21 03:46:09;;;;;;;18.13;12.30;;;;;;;14.19;100.00;100189.94;5022668;28;20207;-71
2023/05/21 03:48:36;;;;;;;17.13;12.13;;;;;;;14.19;100.00;100186.38;5018167;28;20228;-71
2023/05/21 03:51:02;;;;;;;18.23;11.90;;;;;;;14.23;100.00;100189.03;5028332;28;20204;-72
2023/05/21 03:53:29;;;;;;;17.77;12.30;;;;;;;14.28;100.00;100187.22;5027724;28;20191;-71
2023/05/21 03:55:55;;;;;;;20.53;12.50;;;;;;;14.44;100.00;100187.19;5016581;28;20204;-70
2023/05/21 03:58:22;;;;;;;18.33;11.30;;;;;;;14.41;100.00;100185.41;5004584;28;20771;-71
2023/05/21 04:00:49;;;;;;;18.70;12.40;;;;;;;14.41;100.00;100183.63;5026121;28;20359;-71
2023/05/21 04:03:16;;;;;;;20.33;12.77;;;;;;;14.47;100.00;100180.06;5025393;28;20202;-70
2023/05/21 04:05:43;;;;;;;16.00;11.27;;;;;;;14.44;100.00;100190.75;5022240;28;20199;-71
2023/05/21 04:08:10;;;;;;;16.67;12.07;;;;;;;14.48;100.00;100183.63;5021793;28;20221;-72
2023/05/21 04:10:36;;;;;;;17.43;11.00;;;;;;;14.53;100.00;100188.03;5021166;28;20203;-70
2023/05/21 04:13:02;;;;;;;16.67;11.87;;;;;;;14.65;100.00;100176.38;5011399;28;20236;-70
2023/05/21 04:15:29;;;;;;;16.50;11.67;;;;;;;14.74;100.00;100182.53;5014422;28;20815;-72
2023/05/21 04:17:55;;;;;;;17.37;11.77;;;;;;;14.76;100.00;100177.19;5018286;28;20207;-70
2023/05/21 04:20:22;;;;;;;16.87;11.40;;;;;;;14.70;100.00;100186.13;5021278;28;20680;-71
2023/05/21 04:22:48;;;;;;;19.20;11.67;;;;;;;14.68;100.00;100179.91;5020816;28;20206;-70
2023/05/21 04:25:15;;;;;;;16.47;11.77;;;;;;;14.66;100.00;100186.16;5019795;28;20196;-72
2023/05/21 04:27:42;;;;;;;16.57;11.40;;;;;;;14.65;100.00;100187.03;5026208;28;20201;-70
2023/05/21 04:30:09;;;;;;;16.50;11.00;;;;;;;14.66;100.00;100188.81;5017271;28;20831;-70
2023/05/21 04:32:37;;;;;;;14.27;10.70;;;;;;;14.69;100.00;100194.13;5029692;28;20195;-71
2023/05/21 04:35:04;;;;;;;16.53;11.43;;;;;;;14.73;100.00;100196.75;5020970;28;20675;-71
2023/05/21 04:37:33;;;;;;;15.00;11.13;;;;;;;14.82;100.00;100194.94;5028326;28;20204;-70
2023/05/21 04:40:01;;;;;;;16.47;10.90;;;;;;;14.95;100.00;100188.63;5028111;28;20216;-71
2023/05/21 04:42:28;;;;;;;15.77;11.13;;;;;;;15.04;100.00;100189.44;5026480;28;20762;-70
2023/05/21 04:44:58;;;;;;;15.93;11.20;;;;;;;15.14;100.00;100200.91;5019575;28;20537;-71
2023/05/21 04:47:24;;;;;;;17.57;11.87;;;;;;;15.27;99.57;100201.72;5024855;28;20726;-71
2023/05/21 04:49:52;;;;;;;18.30;11.27;;;;;;;15.40;97.90;100191.78;5066012;23;20231;-71
2023/05/21 04:52:18;;;;;;;18.30;11.57;;;;;;;15.67;95.72;100202.25;5050211;28;20217;-73
2023/05/21 04:54:46;;;;;;;15.83;11.23;;;;;;;15.77;94.99;100198.56;5052081;28;20194;-70
2023/05/21 04:57:13;;;;;;;15.47;11.00;;;;;;;15.98;93.16;100202.78;5028158;28;20234;-70
2023/05/21 04:59:40;;;;;;;16.43;11.50;;;;;;;16.12;92.56;100200.84;5042197;28;20206;-71
2023/05/21 05:02:06;;;;;;;15.07;11.43;;;;;;;16.27;91.39;100192.63;5065307;28;20595;-70
2023/05/21 05:04:33;;;;;;;14.73;10.53;;;;;;;16.52;90.40;100194.97;5064197;28;20198;-72
2023/05/21 05:06:59;;;;;;;15.03;10.37;;;;;;;16.74;88.83;100199.13;5066077;28;20226;-71
2023/05/21 05:09:25;;;;;;;14.27;10.40;;;;;;;16.87;87.90;100197.19;5066277;28;20376;-70
2023/05/21 05:11:52;;;;;;;16.57;10.63;;;;;;;17.04;87.40;100188.88;5067797;28;20206;-70
2023/05/21 05:14:18;;;;;;;14.00;10.23;;;;;;;17.28;85.49;100200.97;5045167;28;20195;-71
2023/05/21 05:16:47;;;;;;;20.97;11.03;;;;;;;17.33;84.26;100191.06;5069654;28;20281;-72
2023/05/21 05:19:13;;;;;;;16.07;10.63;;;;;;;17.45;84.58;100191.72;5067523;28;20210;-73
2023/05/21 05:21:40;;;;;;;15.17;10.13;;;;;;;17.64;83.59;100200.31;5065238;28;20278;-71
2023/05/21 05:24:06;;;;;;;16.60;10.90;;;;;;;17.72;83.33;100205.56;5066377;28;20201;-70
2023/05/21 05:26:32;;;;;;;16.00;10.07;;;;;;;17.68;83.37;100198.50;5049450;28;20205;-70
2023/05/21 05:28:59;;;;;;;15.37;10.57;;;;;;;17.79;82.61;100196.50;5065177;28;20304;-69
2023/05/21 05:31:25;;;;;;;16.80;10.00;;;;;;;17.91;82.92;100188.22;5068417;28;20202;-70
2023/05/21 05:33:52;;;;;;;14.50;10.23;;;;;;;18.24;81.81;100188.44;5064495;28;20198;-71
2023/05/21 05:36:19;;;;;;;14.60;10.57;;;;;;;18.48;79.71;100187.94;5061869;28;20199;-70
2023/05/21 05:38:45;;;;;;;15.30;10.37;;;;;;;18.70;79.31;100186.53;5061986;28;20220;-71
2023/05/21 05:41:11;;;;;;;15.43;10.40;;;;;;;18.96;79.17;100185.06;5065528;28;20209;-70
2023/05/21 05:43:38;;;;;;;17.10;10.80;;;;;;;19.15;76.12;100189.03;5062073;28;20598;-73
2023/05/21 05:46:04;;;;;;;15.77;10.60;;;;;;;19.22;75.58;100188.00;5062081;28;20253;-71
2023/05/21 05:48:31;;;;;;;14.60;10.37;;;;;;;19.42;75.67;100183.00;5058146;28;20694;-71
2023/05/21 05:50:57;;;;;;;14.20;11.10;;;;;;;19.53;74.85;100185.41;5067295;28;20202;-71
2023/05/21 05:53:24;;;;;;;15.30;10.17;;;;;;;19.72;74.58;100183.13;5059084;28;20289;-70
2023/05/21 05:55:50;;;;;;;14.10;9.77;;;;;;;19.89;73.18;100179.97;5067321;28;20205;-72
2023/05/21 05:58:16;;;;;;;15.13;10.80;;;;;;;20.11;71.26;100186.50;5060893;28;20736;-70
2023/05/21 06:00:43;;;;;;;19.50;10.57;;;;;;;20.24;71.45;100181.66;5067623;28;20198;-71
2023/05/21 06:03:10;;;;;;;16.03;9.97;;;;;;;20.50;71.58;100180.91;5066719;28;20245;-71
2023/05/21 06:05:37;;;;;;;13.70;10.60;;;;;;;20.50;71.04;100173.72;5059051;28;20190;-71
2023/05/21 06:08:05;;;;;;;12.73;9.87;;;;;;;20.56;70.21;100186.09;5059312;28;20199;-71
2023/05/21 06:10:31;;;;;;;14.53;9.83;;;;;;;20.48;70.16;100177.38;5063125;28;20221;-70
2023/05/21 06:12:57;;;;;;;14.60;9.77;;;;;;;20.78;71.39;100186.31;5060832;28;20211;-71
2023/05/21 06:15:24;;;;;;;12.55;9.32;;;;;;;21.01;69.94;100182.88;5066890;28;20701;-72
2023/05/21 06:17:50;;;;;;;14.90;10.07;;;;;;;21.34;68.43;100186.31;5067246;28;20729;-72
2023/05/21 06:20:17;;;;;;;13.38;9.75;;;;;;;21.91;67.18;100183.38;5065778;28;20221;-73
2023/05/21 06:22:43;;;;;;;13.57;9.57;;;;;;;22.06;64.84;100190.94;5064562;28;20199;-71
2023/05/21 06:25:10;;;;;;;16.20;9.57;;;;;;;22.18;64.78;100189.59;5056820;28;20281;-70
2023/05/21 06:27:37;;;;;;;14.18;10.13;;;;;;;22.32;64.10;100187.25;5061692;28;20241;-71
2023/05/21 06:30:04;;;;;;;15.32;10.10;;;;;;;22.13;64.13;100192.47;5063537;28;20301;-71
2023/05/21 06:32:31;;;;;;;16.67;10.63;;;;;;;22.26;63.67;100184.81;5063365;28;20281;-71
2023/05/21 06:34:57;;;;;;;15.02;9.68;;;;;;;22.81;63.11;100190.78;5062705;28;20212;-74
2023/05/21 06:37:24;;;;;;;14.30;9.50;;;;;;;23.00;62.47;100197.22;5064522;28;20195;-71
2023/05/21 06:39:52;;;;;;;14.63;9.70;;;;;;;23.21;61.02;100189.16;5066462;28;20224;-72
2023/05/21 06:42:18;;;;;;;11.57;9.07;;;;;;;23.33;60.77;100189.53;5065820;28;20229;-71
2023/05/21 06:44:44;;;;;;;12.90;9.52;;;;;;;23.36;59.34;100189.41;5068001;28;20198;-71
2023/05/21 06:47:11;;;;;;;14.95;10.57;;;;;;;23.36;59.83;100183.13;5067073;28;20229;-71
2023/05/21 06:49:37;;;;;;;12.35;9.05;;;;;;;23.52;58.38;100186.91;5061394;28;20215;-71
2023/05/21 06:52:04;;;;;;;12.77;9.32;;;;;;;23.79;57.93;100189.41;5058235;28;20248;-73
2023/05/21 06:54:30;;;;;;;12.13;9.77;;;;;;;23.97;56.88;100184.03;5064259;28;20197;-72
2023/05/21 06:56:57;;;;;;;15.57;9.13;;;;;;;24.07;56.07;100198.06;5061808;28;20194;-70
2023/05/21 06:59:23;;;;;;;12.18;9.27;;;;;;;24.33;55.68;100194.19;5062952;28;20210;-71
2023/05/21 07:01:50;;;;;;;13.07;9.40;;;;;;;25.12;53.36;100190.38;5067018;28;20285;-71
2023/05/21 07:04:16;;;;;;;13.25;9.23;;;;;;;26.33;47.97;100190.44;5066140;28;20209;-73
2023/05/21 07:06:42;;;;;;;13.88;9.63;;;;;;;27.66;44.57;100199.19;5061668;28;20277;-71
2023/05/21 07:09:09;;;;;;;14.35;9.32;;;;;;;28.68;41.40;100185.47;5045383;28;20244;-71
2023/05/21 07:11:35;;;;;;;12.50;9.35;;;;;;;29.05;39.34;100199.47;5066665;28;20202;-72
2023/05/21 07:14:02;;;;;;;12.13;8.98;;;;;;;27.72;41.57;100199.69;5061948;28;20198;-70
2023/05/21 07:16:31;;;;;;;13.40;8.90;;;;;;;27.33;42.84;100202.91;5064032;28;20217;-71
2023/05/21 07:18:58;;;;;;;12.43;8.90;;;;;;;27.65;42.58;100198.31;5062732;28;20611;-73
2023/05/21 07:21:24;;;;;;;14.15;9.63;;;;;;;27.74;42.25;100200.47;5065926;28;20199;-71
2023/05/21 07:23:51;;;;;;;11.30;9.20;;;;;;;28.20;40.52;100213.09;5067595;28;20579;-72
2023/05/21 07:26:17;;;;;;;12.80;9.18;;;;;;;27.90;41.41;100208.56;5066424;28;20195;-71
2023/05/21 07:28:44;;;;;;;11.93;9.25;;;;;;;28.30;40.93;100201.53;5064286;28;20222;-71
2023/05/21 07:31:11;;;;;;;10.18;8.70;;;;;;;29.44;38.38;100201.41;5064936;28;20229;-71
2023/05/21 07:33:37;;;;;;;12.07;9.18;;;;;;;30.51;35.49;100205.75;5068189;28;20209;-71
2023/05/21 07:36:04;;;;;;;13.45;9.70;;;;;;;30.15;35.70;100195.59;5062777;28;20203;-71
2023/05/21 07:38:31;;;;;;;13.35;9.05;;;;;;;29.29;37.83;100197.84;5060643;28;20202;-69
2023/05/21 07:40:57;;;;;;;11.23;8.68;;;;;;;29.00;38.77;100196.19;5068316;28;20197;-72
2023/05/21 07:43:23;;;;;;;11.43;9.32;;;;;;;28.98;38.63;100195.41;5062364;28;20670;-71
2023/05/21 07:45:50;;;;;;;11.20;8.48;;;;;;;28.55;39.30;100192.72;5065454;28;20337;-71
2023/05/21 07:48:17;;;;;;;11.75;9.35;;;;;;;28.63;39.54;100192.22;5064322;28;20241;-70
2023/05/21 07:50:48;;;;;;;13.32;9.50;;;;;;;28.09;40.57;100171.06;5056420;28;20203;-71
2023/05/21 07:53:15;;;;;;;11.40;9.13;;;;;;;29.03;39.93;100193.25;5044904;28;20197;-71
2023/05/21 07:55:46;;;;;;;10.60;8.95;;;;;;;29.09;38.38;100186.50;5056786;28;20233;-71
2023/05/21 07:58:17;;;;;;;12.80;10.15;;;;;;;28.84;39.10;100193.59;5063692;28;20190;-71
2023/05/21 08:00:46;;;;;;;12.10;9.43;;;;;;;28.38;39.59;100187.44;5062906;28;20187;-71
2023/05/21 08:03:15;;;;;;;11.60;9.18;;;;;;;28.06;41.25;100186.72;5060683;28;20230;-71
2023/05/21 08:05:49;;;;;;;12.35;9.30;;;;;;;28.05;40.79;100174.97;5063411;28;20285;-71
2023/05/21 08:08:20;;;;;;;11.93;9.32;;;;;;;28.03;40.99;100195.97;5049554;28;20197;-71
2023/05/21 08:10:47;;;;;;;12.52;9.30;;;;;;;27.65;41.66;100186.53;5070800;28;20222;-72
2023/05/21 08:13:15;;;;;;;13.20;9.18;;;;;;;27.20;42.74;100190.97;5068718;28;20201;-71
2023/05/21 08:15:41;;;;;;;11.48;9.00;;;;;;;26.94;44.23;100189.75;5062758;28;20715;-73
2023/05/21 08:18:08;;;;;;;13.63;9.98;;;;;;;26.16;45.69;100191.34;5067919;28;20199;-71
2023/05/21 08:20:35;;;;;;;15.35;10.43;;;;;;;25.44;48.53;100196.91;5067564;28;20210;-71
2023/05/21 08:23:01;;;;;;;12.93;9.25;;;;;;;25.80;47.46;100190.56;5070204;28;20285;-73
2023/05/21 08:25:28;;;;;;;12.60;10.05;;;;;;;25.55;47.74;100188.22;5059766;28;20281;-71
2023/05/21 08:27:55;;;;;;;11.60;9.20;;;;;;;25.44;48.39;100185.19;5061224;28;20250;-74
2023/05/21 08:30:21;;;;;;;12.35;9.15;;;;;;;26.05;46.26;100188.34;5070438;28;20603;-71
2023/05/21 08:32:48;;;;;;;12.10;9.18;;;;;;;26.40;45.23;100183.72;5070415;28;20198;-74
2023/05/21 08:35:15;;;;;;;16.45;9.68;;;;;;;26.48;44.69;100192.34;5066778;28;20236;-75
2023/05/21 08:37:41;;;;;;;10.85;9.00;;;;;;;26.53;44.79;100192.06;5068866;28;20289;-71
2023/05/21 08:40:10;;;;;;;10.85;9.10;;;;;;;26.04;45.17;100197.44;5069611;28;20673;-70
2023/05/21 08:42:44;;;;;;;15.10;9.77;;;;;;;25.89;45.82;100192.81;5058857;28;20209;-73
2023/05/21 08:45:12;;;;;;;15.20;9.65;;;;;;;25.66;46.46;100196.75;5067318;28;20284;-75
2023/05/21 08:47:43;;;;;;;12.45;9.38;;;;;;;25.91;46.60;100197.19;5068490;28;20226;-74
2023/05/21 08:50:12;;;;;;;12.40;9.40;;;;;;;25.77;46.28;100201.59;5066855;28;20253;-74
2023/05/21 08:52:39;;;;;;;12.05;9.32;;;;;;;25.76;46.56;100186.28;5068359;28;20233;-73
2023/05/21 08:55:07;;;;;;;12.77;9.52;;;;;;;26.24;44.71;100191.78;5046099;28;20670;-76
2023/05/21 08:57:33;;;;;;;11.15;9.23;;;;;;;26.39;44.23;100189.22;5068842;28;20258;-73
2023/05/21 09:00:00;;;;;;;12.55;9.38;;;;;;;26.52;44.97;100188.47;5068249;28;20279;-74
2023/05/21 09:02:32;;;;;;;11.73;9.48;;;;;;;26.71;42.65;100173.84;5064098;28;20651;-72
2023/05/21 09:05:02;;;;;;;11.50;8.63;;;;;;;27.04;42.96;100179.25;5067040;28;20212;-72
2023/05/21 09:07:33;;;;;;;10.68;8.80;;;;;;;27.17;42.50;100180.25;5066324;28;20580;-75
2023/05/21 09:10:09;;;;;;;12.52;9.48;;;;;;;26.82;42.74;100183.16;5068823;28;20218;-73
2023/05/21 09:12:36;;;;;;;12.85;8.98;;;;;;;26.32;43.92;100188.66;5067175;28;20194;-72
2023/05/21 09:15:04;;;;;;;13.27;8.98;;;;;;;26.26;44.54;100186.28;5065456;28;20229;-72
2023/05/21 09:17:30;;;;;;;12.38;9.00;;;;;;;26.09;45.18;100187.19;5068237;28;20684;-72
2023/05/21 09:20:11;;;;;;;13.50;9.35;;;;;;;26.17;43.96;100186.78;5064812;28;20225;-74
2023/05/21 09:22:41;;;;;;;10.75;8.68;;;;;;;26.18;44.13;100184.00;5066478;28;20739;-73
2023/05/21 09:25:10;;;;;;;10.90;9.05;;;;;;;26.08;45.38;100179.16;5062219;28;20798;-72
2023/05/21 09:27:37;;;;;;;12.68;8.82;;;;;;;26.31;44.07;100180.59;5066893;28;20204;-73
2023/05/21 09:30:09;;;;;;;13.57;9.80;;;;;;;26.33;43.65;100185.00;5065692;28;20222;-73
2023/05/21 09:32:36;;;;;;;12.05;9.27;;;;;;;26.16;44.43;100183.19;5050855;28;20202;-73
2023/05/21 09:35:08;;;;;;;11.07;9.50;;;;;;;25.92;45.56;100179.06;5065234;28;20198;-72
2023/05/21 09:37:46;;;;;;;13.00;9.70;;;;;;;25.86;44.95;100174.84;5064788;28;20194;-73
2023/05/21 09:40:18;;;;;;;13.60;10.23;;;;;;;26.45;45.30;100168.06;5065985;28;20712;-71
2023/05/21 09:42:47;;;;;;;13.32;9.10;;;;;;;26.68;43.13;100171.31;5066909;28;20194;-73
2023/05/21 09:45:21;;;;;;;11.98;9.30;;;;;;;26.94;43.08;100170.72;5065603;28;20194;-73
2023/05/21 09:47:49;;;;;;;11.60;9.55;;;;;;;27.36;42.84;100170.06;5066194;28;20205;-74
2023/05/21 09:50:20;;;;;;;13.40;9.05;;;;;;;27.03;42.17;100174.75;5064094;28;20218;-75
2023/05/21 09:52:49;;;;;;;11.18;8.32;;;;;;;27.12;43.60;100175.09;5049672;28;20998;-74
2023/05/21 09:55:16;;;;;;;11.20;8.82;;;;;;;27.45;42.51;100165.91;5068438;28;20197;-73
2023/05/21 09:57:44;;;;;;;11.32;9.25;;;;;;;27.46;41.34;100175.84;5066965;28;20284;-71
2023/05/21 10:00:26;;;;;;;9.23;8.15;;;;;;;27.97;40.70;100160.03;5048315;28;20210;-72
2023/05/21 10:02:54;;;;;;;10.55;8.77;;;;;;;28.33;39.66;100171.38;5058691;28;20220;-73
2023/05/21 10:05:25;;;;;;;11.32;9.07;;;;;;;27.76;39.87;100171.31;5060333;28;20654;-73
2023/05/21 10:07:55;;;;;;;11.93;9.23;;;;;;;27.63;40.46;100166.72;5064235;28;20473;-72
2023/05/21 10:10:22;;;;;;;10.30;8.60;;;;;;;27.43;41.79;100168.72;5067622;28;20222;-74
2023/05/21 10:12:56;;;;;;;12.38;8.57;;;;;;;27.76;41.05;100157.69;5060810;28;20199;-70
2023/05/21 10:15:24;;;;;;;10.07;8.63;;;;;;;27.35;40.79;100164.72;5067988;28;20200;-73
2023/05/21 10:17:51;;;;;;;11.32;9.00;;;;;;;27.23;41.99;100151.88;5062617;28;20615;-72
2023/05/21 10:20:17;;;;;;;10.63;8.40;;;;;;;27.46;40.86;100154.94;5066328;28;20601;-73
2023/05/21 10:22:44;;;;;;;9.63;7.97;;;;;;;27.52;40.99;100145.53;5062047;28;20729;-73
2023/05/21 10:25:14;;;;;;;15.18;10.00;;;;;;;27.26;41.92;100140.81;5063315;28;20198;-75
2023/05/21 10:27:40;;;;;;;12.40;8.20;;;;;;;27.89;41.07;100133.31;5058096;28;20405;-75
2023/05/21 10:30:08;;;;;;;10.73;8.50;;;;;;;28.38;39.81;100142.00;5066293;28;20225;-75
2023/05/21 10:32:34;;;;;;;10.63;9.02;;;;;;;28.46;39.25;100140.66;5068247;28;20198;-71
2023/05/21 10:35:01;;;;;;;11.13;8.98;;;;;;;28.42;39.14;100129.09;5060631;28;20445;-74
2023/05/21 10:37:28;;;;;;;11.80;8.70;;;;;;;28.30;39.04;100136.16;5065727;28;20206;-74
2023/05/21 10:39:55;;;;;;;11.48;8.35;;;;;;;28.13;38.34;100135.47;5064145;28;20676;-72
2023/05/21 10:42:30;;;;;;;9.82;8.65;;;;;;;27.46;40.52;100137.75;5067564;28;20196;-74
2023/05/21 10:45:02;;;;;;;11.27;9.20;;;;;;;27.77;39.95;100140.41;5060367;28;20194;-75
2023/05/21 10:47:41;;;;;;;9.75;8.30;;;;;;;27.85;39.88;100136.31;5065921;28;20311;-73
2023/05/21 10:50:40;;;;;;;13.07;8.80;;;;;;;28.20;39.20;100124.09;5048750;23;20228;-70
2023/05/21 10:53:12;;;;;;;8.90;7.97;;;;;;;27.60;38.31;100148.66;5004822;28;20195;-71
2023/05/21 10:56:05;;;;;;;9.75;8.38;;;;;;;27.19;38.87;100123.06;5044870;28;20217;-70
2023/05/21 10:58:50;;;;;;;10.15;8.10;;;;;;;27.78;38.11;100135.81;5048895;28;20195;-71
2023/05/21 11:01:20;;;;;;;10.68;8.60;;;;;;;27.79;39.55;100132.13;5023603;28;20199;-70
2023/05/21 11:03:49;;;;;;;11.82;9.02;;;;;;;28.11;38.60;100135.56;5010116;28;20199;-71
2023/05/21 11:06:24;;;;;;;11.70;8.45;;;;;;;28.16;38.52;100129.84;5026703;28;20203;-69
2023/05/21 11:08:54;;;;;;;10.82;8.50;;;;;;;28.07;38.68;100131.28;5023834;28;20202;-70
2023/05/21 11:11:42;;;;;;;10.73;8.75;;;;;;;27.31;40.41;100128.69;5023556;28;20219;-70
2023/05/21 11:14:27;;;;;;;10.75;8.68;;;;;;;27.19;40.77;100132.09;5021656;28;20648;-70